Terminal Aerodrome Forecast
Issued by NWS St Louis, MO

Home | Current Version | Previous Version | Text Only | Print | Product List | Glossary On
Versions: 1 2 3 4 5 6 7 8 9 10 11 12 13 14 15 16 17 18 19 20 21 22 23
000
FTUS43 KLSX 171724
TAFCOU
TAF
KCOU 171724Z 1718/1818 28009KT P6SM OVC008
     FM180100 28005KT P6SM OVC015
     FM180500 VRB03KT P6SM BKN020
     FM180800 VRB03KT 4SM BR BKN025
     FM181000 VRB03KT 5SM BR SCT030
     FM181600 17004KT P6SM SCT070=

USA.gov is the U.S. government's official web portal to all federal, state and local government web resources and services.